createdAt,value
2017-11-27T00:01:58.905Z,54.70
2017-11-27T00:04:24.924Z,54.77
2017-11-27T00:06:50.879Z,54.36
2017-11-27T00:09:16.843Z,54.92
2017-11-27T00:11:42.774Z,55.14
2017-11-27T00:14:08.699Z,54.96
2017-11-27T00:16:34.623Z,55.44
2017-11-27T00:19:00.570Z,55.44
2017-11-27T00:21:26.501Z,55.28
2017-11-27T00:23:52.452Z,55.24
2017-11-27T00:26:18.390Z,55.08
2017-11-27T00:28:44.327Z,54.93
2017-11-27T00:31:10.284Z,55.42
2017-11-27T00:33:36.218Z,55.31
2017-11-27T00:36:02.158Z,55.56
2017-11-27T00:38:28.083Z,55.66
2017-11-27T00:40:54.033Z,55.24
2017-11-27T00:43:19.980Z,55.64
2017-11-27T00:45:45.915Z,55.45
2017-11-27T00:48:11.865Z,55.53
2017-11-27T00:50:37.813Z,55.26
2017-11-27T00:53:03.815Z,55.77
2017-11-27T00:55:29.761Z,55.47
2017-11-27T00:57:55.685Z,55.44
2017-11-27T01:00:21.625Z,55.00
2017-11-27T01:02:47.576Z,55.07
2017-11-27T01:05:13.526Z,54.68
2017-11-27T01:07:39.688Z,55.09
2017-11-27T01:10:05.617Z,55.02
2017-11-27T01:12:31.547Z,55.31
2017-11-27T01:14:57.541Z,54.40
2017-11-27T01:17:23.469Z,55.04
2017-11-27T01:19:49.426Z,54.58
2017-11-27T01:22:15.366Z,54.94
2017-11-27T01:24:41.299Z,54.64
2017-11-27T01:27:07.244Z,55.09
2017-11-27T01:29:33.182Z,54.92
2017-11-27T01:31:59.133Z,55.35
2017-11-27T01:34:25.075Z,54.83
2017-11-27T01:36:51.001Z,55.02
2017-11-27T01:39:16.935Z,54.87
2017-11-27T01:41:42.873Z,54.89
2017-11-27T01:44:08.807Z,55.03
2017-11-27T01:46:34.767Z,54.78
2017-11-27T01:49:00.714Z,55.04
2017-11-27T01:51:26.642Z,54.86
2017-11-27T01:53:52.567Z,54.68
2017-11-27T01:56:18.502Z,54.10
2017-11-27T01:58:44.467Z,54.60
2017-11-27T02:01:10.401Z,53.75
2017-11-27T02:03:36.319Z,54.16
2017-11-27T02:06:02.250Z,54.61
2017-11-27T02:08:28.197Z,54.47
2017-11-27T02:10:54.149Z,54.75
2017-11-27T02:13:20.091Z,54.58
2017-11-27T02:15:46.016Z,54.55
2017-11-27T02:18:11.939Z,54.40
2017-11-27T02:20:37.875Z,53.75
2017-11-27T02:23:03.810Z,54.30
2017-11-27T02:25:29.757Z,54.58
2017-11-27T02:27:55.744Z,54.11
2017-11-27T02:30:21.695Z,54.11
2017-11-27T02:32:47.636Z,54.18
2017-11-27T02:35:13.561Z,54.23
2017-11-27T02:37:39.492Z,53.72
2017-11-27T02:40:05.471Z,54.29
2017-11-27T02:42:31.403Z,54.44
2017-11-27T02:44:57.352Z,54.46
2017-11-27T02:47:23.301Z,54.68
2017-11-27T02:49:49.222Z,54.32
2017-11-27T02:52:15.167Z,55.08
2017-11-27T02:54:41.112Z,54.86
2017-11-27T02:57:07.049Z,54.54
2017-11-27T02:59:32.973Z,54.54
2017-11-27T03:01:58.905Z,54.02
2017-11-27T03:04:24.835Z,54.37
2017-11-27T03:06:50.781Z,54.65
2017-11-27T03:09:16.718Z,54.66
2017-11-27T03:11:42.673Z,54.71
2017-11-27T03:14:08.610Z,54.51
2017-11-27T03:16:34.536Z,54.12
2017-11-27T03:19:00.512Z,54.29
2017-11-27T03:21:26.439Z,54.34
2017-11-27T03:23:52.390Z,54.08
2017-11-27T03:26:18.357Z,54.38
2017-11-27T03:28:44.289Z,54.25
2017-11-27T03:31:10.236Z,54.26
2017-11-27T03:33:36.177Z,54.10
2017-11-27T03:36:02.138Z,53.98
2017-11-27T03:38:28.125Z,54.33
2017-11-27T03:40:54.064Z,53.99
2017-11-27T03:43:19.997Z,53.98
2017-11-27T03:45:45.928Z,53.89
2017-11-27T03:48:11.851Z,53.90
2017-11-27T03:50:37.809Z,53.91
2017-11-27T03:53:03.757Z,53.53
2017-11-27T03:55:29.707Z,53.57
2017-11-27T03:57:55.643Z,53.29
2017-11-27T04:00:21.598Z,53.48
2017-11-27T04:02:47.538Z,53.94
2017-11-27T04:05:13.477Z,53.76
2017-11-27T04:07:39.421Z,53.91
2017-11-27T04:10:05.351Z,53.55
2017-11-27T04:12:31.279Z,53.19
2017-11-27T04:14:57.237Z,53.70
2017-11-27T04:17:23.180Z,54.07
2017-11-27T04:19:49.119Z,53.51
2017-11-27T04:22:15.071Z,53.38
2017-11-27T04:24:41.007Z,53.51
2017-11-27T04:27:06.973Z,53.56
2017-11-27T04:29:32.908Z,53.72
2017-11-27T04:31:58.878Z,53.54
2017-11-27T04:34:24.822Z,53.44
2017-11-27T04:36:50.757Z,53.85
2017-11-27T04:39:16.709Z,54.03
2017-11-27T04:41:42.645Z,53.90
2017-11-27T04:44:08.577Z,53.48
2017-11-27T04:46:34.514Z,53.50
2017-11-27T04:49:00.491Z,53.74
2017-11-27T04:51:26.436Z,53.99
2017-11-27T04:53:52.379Z,54.23
2017-11-27T04:56:18.307Z,53.71
2017-11-27T04:58:44.246Z,53.66
2017-11-27T05:01:10.514Z,54.02
2017-11-27T05:03:36.457Z,54.24
2017-11-27T05:06:02.387Z,54.20
2017-11-27T05:08:28.321Z,53.83
2017-11-27T05:10:54.250Z,53.84
2017-11-27T05:13:20.206Z,53.29
2017-11-27T05:15:46.157Z,53.50
2017-11-27T05:18:12.076Z,53.72
2017-11-27T05:20:38.025Z,53.67
2017-11-27T05:23:03.971Z,53.74
2017-11-27T05:25:29.909Z,53.85
2017-11-27T05:27:55.850Z,53.48
2017-11-27T05:30:21.773Z,53.67
2017-11-27T05:32:47.687Z,53.20
2017-11-27T05:35:13.615Z,53.33
2017-11-27T05:37:39.551Z,53.40
2017-11-27T05:40:05.493Z,53.45
2017-11-27T05:42:31.447Z,53.64
2017-11-27T05:44:57.396Z,53.66
2017-11-27T05:47:23.315Z,53.43
2017-11-27T05:49:49.249Z,53.38
2017-11-27T05:52:15.317Z,53.49
2017-11-27T05:54:41.257Z,53.32
2017-11-27T05:57:07.202Z,53.17
2017-11-27T05:59:33.140Z,53.69
2017-11-27T06:01:59.091Z,53.47
2017-11-27T06:04:25.058Z,54.06
2017-11-27T06:06:51.014Z,53.89
2017-11-27T06:09:16.964Z,54.04
2017-11-27T06:11:42.905Z,54.18
2017-11-27T06:14:08.866Z,53.74
2017-11-27T06:16:34.927Z,53.79
2017-11-27T06:19:00.907Z,53.98
2017-11-27T06:21:26.857Z,54.17
2017-11-27T06:23:52.791Z,53.98
2017-11-27T06:26:18.739Z,54.00
2017-11-27T06:28:44.929Z,54.22
2017-11-27T06:31:10.879Z,54.55
2017-11-27T06:33:37.017Z,54.27
2017-11-27T06:36:02.963Z,53.69
2017-11-27T06:38:28.924Z,54.10
2017-11-27T06:40:54.889Z,54.42
2017-11-27T06:43:20.814Z,54.80
2017-11-27T06:45:46.771Z,54.40
2017-11-27T06:48:12.701Z,54.37
2017-11-27T06:50:38.623Z,54.68
2017-11-27T06:53:04.576Z,54.40
2017-11-27T06:55:30.521Z,54.56
2017-11-27T06:57:56.449Z,54.53
2017-11-27T07:00:22.410Z,54.06
2017-11-27T07:02:48.354Z,54.45
2017-11-27T07:05:14.286Z,53.83
2017-11-27T07:07:40.233Z,53.80
2017-11-27T07:10:06.170Z,54.16
2017-11-27T07:12:32.244Z,53.91
2017-11-27T07:14:58.224Z,53.67
2017-11-27T07:17:24.166Z,53.69
2017-11-27T07:19:50.371Z,53.98
2017-11-27T07:22:16.309Z,55.31
2017-11-27T07:24:42.367Z,57.11
2017-11-27T07:27:08.319Z,55.89
2017-11-27T07:29:34.242Z,57.51
2017-11-27T07:32:00.183Z,56.03
2017-11-27T07:34:26.127Z,55.14
2017-11-27T07:36:52.069Z,54.61
2017-11-27T07:39:18.017Z,55.13
2017-11-27T07:41:43.949Z,54.37
2017-11-27T07:44:09.885Z,53.48
2017-11-27T07:46:35.829Z,53.50
2017-11-27T07:49:01.918Z,53.85
2017-11-27T07:51:27.919Z,52.38
2017-11-27T07:53:53.841Z,52.65
2017-11-27T07:56:19.783Z,51.90
2017-11-27T07:58:45.751Z,51.91
2017-11-27T08:01:11.716Z,51.85
2017-11-27T08:03:37.713Z,51.21
2017-11-27T08:06:03.665Z,50.81
2017-11-27T08:08:29.596Z,50.21
2017-11-27T08:10:55.521Z,50.08
2017-11-27T08:13:21.480Z,49.91
2017-11-27T08:15:47.413Z,50.02
2017-11-27T08:18:13.441Z,49.22
2017-11-27T08:20:39.367Z,48.25
2017-11-27T08:23:05.291Z,48.90
2017-11-27T08:25:31.232Z,49.07
2017-11-27T08:27:57.171Z,48.73
2017-11-27T08:30:23.139Z,48.18
2017-11-27T08:32:49.066Z,48.11
2017-11-27T08:35:15.019Z,48.25
2017-11-27T08:37:41.018Z,47.80
2017-11-27T08:40:06.967Z,48.18
2017-11-27T08:42:32.912Z,48.43
2017-11-27T08:44:58.864Z,48.90
2017-11-27T08:47:24.808Z,48.53
2017-11-27T08:49:50.749Z,48.18
2017-11-27T08:52:16.685Z,48.17
2017-11-27T08:54:42.609Z,47.77
2017-11-27T08:57:08.538Z,48.16
2017-11-27T08:59:34.467Z,48.01
2017-11-27T09:02:00.388Z,47.95
2017-11-27T09:04:26.318Z,46.72
2017-11-27T09:06:52.244Z,47.55
2017-11-27T09:09:18.192Z,47.79
2017-11-27T09:11:44.120Z,47.51
2017-11-27T09:14:10.067Z,47.17
2017-11-27T09:16:36.001Z,47.20
2017-11-27T09:19:01.918Z,47.05
2017-11-27T09:21:27.852Z,47.32
2017-11-27T09:23:53.786Z,47.11
2017-11-27T09:26:19.708Z,47.00
2017-11-27T09:28:45.636Z,47.47
2017-11-27T09:31:11.576Z,46.73
2017-11-27T09:33:37.520Z,47.21
2017-11-27T09:36:03.438Z,47.03
2017-11-27T09:38:29.381Z,46.73
2017-11-27T09:40:55.316Z,47.06
2017-11-27T09:43:21.311Z,47.28
2017-11-27T09:45:47.241Z,46.97
2017-11-27T09:48:13.176Z,46.60
2017-11-27T09:50:39.128Z,46.86
2017-11-27T09:53:05.065Z,46.69
2017-11-27T09:55:30.996Z,46.08
2017-11-27T09:57:56.951Z,46.22
2017-11-27T10:00:22.900Z,46.41
2017-11-27T10:02:48.854Z,46.17
2017-11-27T10:05:14.803Z,46.01
2017-11-27T10:07:40.740Z,45.04
2017-11-27T10:10:06.671Z,45.28
2017-11-27T10:12:32.792Z,45.25
2017-11-27T10:14:58.751Z,45.29
2017-11-27T10:17:25.406Z,45.48
2017-11-27T10:19:51.378Z,45.54
2017-11-27T10:22:17.394Z,45.59
2017-11-27T10:24:43.325Z,45.61
2017-11-27T10:27:09.268Z,45.98
2017-11-27T10:29:35.225Z,46.22
2017-11-27T10:32:01.148Z,45.60
2017-11-27T10:34:27.095Z,45.53
2017-11-27T10:36:53.029Z,45.01
2017-11-27T10:39:18.973Z,45.40
2017-11-27T10:41:44.905Z,45.63
2017-11-27T10:44:10.830Z,45.66
2017-11-27T10:46:36.785Z,45.12
2017-11-27T10:49:02.751Z,45.64
2017-11-27T10:51:28.689Z,44.69
2017-11-27T10:53:54.615Z,44.91
2017-11-27T10:56:20.612Z,45.20
2017-11-27T10:58:46.551Z,45.14
2017-11-27T11:01:12.477Z,44.42
2017-11-27T11:03:38.408Z,44.49
2017-11-27T11:06:04.353Z,44.34
2017-11-27T11:08:30.291Z,44.73
2017-11-27T11:10:56.230Z,44.68
2017-11-27T11:13:22.166Z,44.76
2017-11-27T11:15:48.099Z,44.89
2017-11-27T11:18:14.041Z,44.34
2017-11-27T11:20:39.981Z,44.71
2017-11-27T11:23:05.941Z,44.69
2017-11-27T11:25:31.867Z,44.65
2017-11-27T11:27:57.893Z,44.74
2017-11-27T11:30:23.825Z,44.58
2017-11-27T11:32:49.749Z,44.63
2017-11-27T11:35:15.735Z,44.75
2017-11-27T11:37:41.663Z,44.16
2017-11-27T11:40:07.616Z,44.43
2017-11-27T11:42:33.567Z,44.41
2017-11-27T11:44:59.504Z,44.21
2017-11-27T11:47:25.590Z,44.29
2017-11-27T11:49:51.521Z,44.24
2017-11-27T11:52:17.439Z,44.21
2017-11-27T11:54:43.379Z,44.24
2017-11-27T11:57:09.314Z,44.35
2017-11-27T11:59:35.268Z,44.44
2017-11-27T12:02:01.203Z,44.48
2017-11-27T12:04:27.135Z,44.34
2017-11-27T12:06:53.075Z,44.63
2017-11-27T12:09:19.017Z,43.56
2017-11-27T12:11:44.958Z,43.97
2017-11-27T12:14:10.939Z,44.25
2017-11-27T12:16:36.863Z,44.51
2017-11-27T12:19:02.785Z,44.16
2017-11-27T12:21:28.722Z,44.28
2017-11-27T12:23:55.013Z,43.69
2017-11-27T12:26:20.935Z,43.79
2017-11-27T12:28:46.877Z,43.74
2017-11-27T12:31:12.805Z,43.64
2017-11-27T12:33:38.741Z,43.74
2017-11-27T12:36:04.693Z,44.19
2017-11-27T12:38:30.634Z,43.72
2017-11-27T12:40:56.561Z,43.71
2017-11-27T12:43:22.485Z,43.58
2017-11-27T12:45:48.427Z,43.08
2017-11-27T12:48:14.390Z,42.86
2017-11-27T12:50:40.334Z,42.89
2017-11-27T12:53:06.273Z,43.29
2017-11-27T12:55:32.187Z,43.27
2017-11-27T12:57:58.109Z,43.27
2017-11-27T13:00:24.055Z,43.50
2017-11-27T13:02:49.997Z,43.23
2017-11-27T13:05:15.940Z,43.32
2017-11-27T13:07:41.881Z,43.31
2017-11-27T13:10:07.812Z,43.37
2017-11-27T13:12:33.751Z,43.21
2017-11-27T13:14:59.715Z,43.33
2017-11-27T13:17:25.639Z,42.87
2017-11-27T13:19:51.580Z,43.22
2017-11-27T13:22:17.522Z,42.39
2017-11-27T13:24:43.447Z,43.04
2017-11-27T13:27:09.377Z,43.03
2017-11-27T13:29:35.300Z,43.09
2017-11-27T13:32:01.333Z,42.99
2017-11-27T13:34:27.279Z,42.60
2017-11-27T13:36:53.223Z,42.50
2017-11-27T13:39:19.171Z,42.50
2017-11-27T13:41:45.117Z,42.09
2017-11-27T13:44:11.059Z,41.84
2017-11-27T13:46:37.106Z,42.33
2017-11-27T13:49:03.043Z,42.46
2017-11-27T13:51:28.970Z,42.60
2017-11-27T13:53:54.897Z,41.92
2017-11-27T13:56:20.862Z,42.01
2017-11-27T13:58:46.804Z,42.17
2017-11-27T14:01:12.733Z,42.30
2017-11-27T14:03:38.684Z,42.41
2017-11-27T14:06:04.617Z,42.26
2017-11-27T14:08:30.549Z,41.84
2017-11-27T14:10:56.474Z,42.14
2017-11-27T14:13:22.397Z,42.67
2017-11-27T14:15:48.326Z,41.92
2017-11-27T14:18:14.322Z,42.21
2017-11-27T14:20:40.271Z,42.23
2017-11-27T14:23:06.411Z,42.08
2017-11-27T14:25:32.357Z,42.28
2017-11-27T14:27:58.295Z,42.45
2017-11-27T14:30:24.243Z,42.52
2017-11-27T14:32:50.185Z,42.38
2017-11-27T14:35:16.133Z,42.54
2017-11-27T14:37:42.089Z,42.84
2017-11-27T14:40:09.102Z,42.06
2017-11-27T14:42:35.057Z,42.48
2017-11-27T14:45:01.042Z,42.98
2017-11-27T14:47:27.023Z,42.86
2017-11-27T14:49:52.968Z,42.50
2017-11-27T14:52:19.125Z,43.13
2017-11-27T14:54:45.074Z,42.47
2017-11-27T14:57:11.011Z,42.99
2017-11-27T14:59:36.966Z,43.57
2017-11-27T15:02:02.918Z,43.74
2017-11-27T15:04:28.865Z,42.49
2017-11-27T15:06:54.816Z,43.30
2017-11-27T15:09:20.747Z,43.34
2017-11-27T15:11:46.696Z,43.90
2017-11-27T15:14:12.682Z,43.90
2017-11-27T15:16:38.615Z,44.40
2017-11-27T15:19:04.563Z,43.99
2017-11-27T15:21:30.506Z,44.71
2017-11-27T15:23:56.452Z,44.80
2017-11-27T15:26:22.398Z,45.27
2017-11-27T15:28:48.345Z,45.11
2017-11-27T15:31:14.289Z,45.36
2017-11-27T15:33:40.223Z,44.99
2017-11-27T15:36:06.179Z,45.98
2017-11-27T15:38:32.123Z,46.47
2017-11-27T15:40:58.062Z,46.91
2017-11-27T15:43:24.009Z,47.47
2017-11-27T15:45:49.951Z,47.58
2017-11-27T15:48:15.877Z,47.45
2017-11-27T15:50:41.842Z,47.63
2017-11-27T15:53:07.782Z,48.27
2017-11-27T15:55:33.701Z,48.09
2017-11-27T15:57:59.630Z,48.02
2017-11-27T16:00:25.553Z,47.94
2017-11-27T16:02:51.497Z,48.37
2017-11-27T16:05:17.429Z,49.04
2017-11-27T16:07:43.370Z,48.90
2017-11-27T16:10:09.301Z,49.56
2017-11-27T16:12:35.246Z,49.79
2017-11-27T16:15:01.205Z,50.41
2017-11-27T16:17:27.146Z,50.13
2017-11-27T16:19:53.112Z,49.66
2017-11-27T16:22:19.077Z,50.90
2017-11-27T16:24:45.008Z,51.05
2017-11-27T16:27:10.948Z,51.80
2017-11-27T16:29:36.880Z,51.21
2017-11-27T16:32:03.013Z,51.11
2017-11-27T16:34:28.937Z,51.79
2017-11-27T16:36:54.872Z,52.21
2017-11-27T16:39:20.837Z,53.41
2017-11-27T16:41:46.761Z,53.23
2017-11-27T16:44:12.725Z,52.28
2017-11-27T16:46:38.673Z,53.58
2017-11-27T16:49:04.599Z,54.41
2017-11-27T16:51:30.639Z,54.74
2017-11-27T16:53:56.599Z,53.79
2017-11-27T16:56:22.565Z,54.39
2017-11-27T16:58:48.521Z,54.71
2017-11-27T17:01:14.467Z,55.17
2017-11-27T17:03:40.463Z,54.90
2017-11-27T17:06:06.411Z,55.64
2017-11-27T17:08:32.372Z,56.32
2017-11-27T17:10:58.297Z,56.52
2017-11-27T17:13:24.227Z,56.39
2017-11-27T17:15:50.198Z,56.46
2017-11-27T17:18:16.142Z,57.00
2017-11-27T17:20:42.087Z,58.05
2017-11-27T17:23:08.030Z,57.72
2017-11-27T17:25:33.983Z,57.43
2017-11-27T17:27:59.947Z,58.14
2017-11-27T17:30:25.883Z,58.07
2017-11-27T17:32:51.821Z,58.49
2017-11-27T17:35:17.793Z,58.37
2017-11-27T17:37:43.957Z,58.29
2017-11-27T17:40:09.900Z,58.07
2017-11-27T17:42:35.897Z,58.34
2017-11-27T17:45:01.861Z,59.04
2017-11-27T17:47:27.867Z,59.17
2017-11-27T17:49:53.837Z,59.01
2017-11-27T17:52:19.772Z,59.40
2017-11-27T17:54:45.729Z,59.32
2017-11-27T17:57:11.684Z,58.83
2017-11-27T17:59:37.628Z,59.82
2017-11-27T18:02:03.594Z,60.47
2017-11-27T18:04:29.556Z,60.33
2017-11-27T18:06:55.511Z,60.34
2017-11-27T18:09:21.509Z,60.81
2017-11-27T18:11:47.535Z,61.25
2017-11-27T18:14:13.493Z,61.57
2017-11-27T18:16:39.509Z,61.63
2017-11-27T18:19:05.501Z,62.11
2017-11-27T18:21:31.505Z,61.75
2017-11-27T18:23:57.470Z,61.69
2017-11-27T18:26:23.445Z,61.80
2017-11-27T18:28:49.437Z,61.56
2017-11-27T18:31:15.413Z,62.15
2017-11-27T18:33:41.383Z,62.03
2017-11-27T18:36:07.347Z,62.41
2017-11-27T18:38:33.342Z,62.29
2017-11-27T18:40:59.361Z,62.52
2017-11-27T18:43:25.314Z,62.30
2017-11-27T18:45:51.243Z,62.45
2017-11-27T18:48:17.190Z,62.53
2017-11-27T18:50:43.119Z,62.81
2017-11-27T18:53:09.067Z,62.48
2017-11-27T18:55:35.015Z,62.95
2017-11-27T18:58:00.969Z,63.11
2017-11-27T19:00:26.902Z,63.34
2017-11-27T19:02:52.862Z,63.55
2017-11-27T19:05:18.801Z,63.64
2017-11-27T19:07:44.930Z,63.57
2017-11-27T19:10:10.875Z,63.14
2017-11-27T19:12:36.825Z,62.51
2017-11-27T19:15:02.761Z,63.35
2017-11-27T19:17:28.695Z,63.61
2017-11-27T19:19:54.659Z,63.65
2017-11-27T19:22:20.731Z,63.80
2017-11-27T19:24:46.679Z,63.53
2017-11-27T19:27:12.644Z,64.26
2017-11-27T19:29:38.623Z,64.22
2017-11-27T19:32:04.609Z,63.67
2017-11-27T19:34:30.681Z,64.38
2017-11-27T19:36:56.662Z,64.54
2017-11-27T19:39:22.727Z,64.47
2017-11-27T19:41:48.665Z,64.37
2017-11-27T19:44:14.641Z,63.98
2017-11-27T19:46:40.604Z,64.36
2017-11-27T19:49:06.553Z,63.90
2017-11-27T19:51:32.516Z,64.28
2017-11-27T19:53:58.495Z,64.29
2017-11-27T19:56:24.635Z,64.19
2017-11-27T19:58:50.637Z,64.61
2017-11-27T20:01:16.717Z,64.44
2017-11-27T20:03:42.725Z,64.24
2017-11-27T20:06:08.697Z,63.58
2017-11-27T20:08:34.678Z,63.44
2017-11-27T20:11:00.687Z,63.79
2017-11-27T20:13:26.688Z,63.33
2017-11-27T20:15:52.682Z,63.35
2017-11-27T20:18:18.692Z,63.79
2017-11-27T20:20:44.863Z,63.47
2017-11-27T20:23:10.797Z,64.04
2017-11-27T20:25:36.741Z,64.21
2017-11-27T20:28:02.718Z,64.37
2017-11-27T20:30:28.692Z,64.47
2017-11-27T20:32:54.654Z,64.44
2017-11-27T20:35:20.592Z,64.59
2017-11-27T20:37:46.569Z,63.91
2017-11-27T20:40:12.533Z,64.01
2017-11-27T20:42:38.478Z,64.11
2017-11-27T20:45:04.461Z,63.61
2017-11-27T20:47:30.421Z,64.23
2017-11-27T20:49:56.369Z,63.18
2017-11-27T20:52:22.319Z,63.18
2017-11-27T20:54:48.297Z,63.82
2017-11-27T20:57:14.321Z,63.96
2017-11-27T20:59:40.403Z,63.51
2017-11-27T21:02:06.412Z,63.73
2017-11-27T21:04:32.435Z,63.34
2017-11-27T21:06:58.425Z,64.00
2017-11-27T21:09:24.387Z,63.87
2017-11-27T21:11:50.329Z,64.08
2017-11-27T21:14:16.521Z,65.48
2017-11-27T21:16:42.461Z,64.40
2017-11-27T21:19:08.403Z,64.50
2017-11-27T21:21:34.353Z,64.77
2017-11-27T21:24:00.302Z,64.27
2017-11-27T21:26:26.235Z,63.53
2017-11-27T21:28:52.186Z,64.36
2017-11-27T21:31:18.138Z,64.41
2017-11-27T21:33:44.289Z,64.71
2017-11-27T21:36:10.223Z,64.91
2017-11-27T21:38:36.169Z,64.98
2017-11-27T21:41:02.190Z,64.02
2017-11-27T21:43:28.165Z,64.24
2017-11-27T21:45:54.116Z,63.70
2017-11-27T21:48:20.081Z,64.27
2017-11-27T21:50:46.053Z,64.42
2017-11-27T21:53:12.026Z,63.97
2017-11-27T21:55:37.969Z,64.66
2017-11-27T21:58:04.170Z,64.61
2017-11-27T22:00:30.127Z,64.62
2017-11-27T22:02:56.064Z,64.31
2017-11-27T22:05:22.002Z,63.94
2017-11-27T22:07:47.935Z,64.36
2017-11-27T22:10:14.128Z,64.77
2017-11-27T22:12:40.094Z,64.82
2017-11-27T22:15:06.032Z,64.34
2017-11-27T22:17:31.965Z,64.13
2017-11-27T22:19:57.906Z,64.04
2017-11-27T22:22:23.963Z,63.59
2017-11-27T22:24:49.928Z,64.23
2017-11-27T22:27:15.851Z,63.89
2017-11-27T22:29:41.780Z,63.75
2017-11-27T22:32:07.708Z,63.40
2017-11-27T22:34:33.643Z,62.95
2017-11-27T22:36:59.599Z,63.10
2017-11-27T22:39:25.552Z,62.37
2017-11-27T22:41:51.485Z,62.51
2017-11-27T22:44:17.431Z,62.51
2017-11-27T22:46:43.361Z,62.49
2017-11-27T22:49:09.281Z,62.43
2017-11-27T22:51:35.261Z,62.28
2017-11-27T22:54:01.184Z,62.06
2017-11-27T22:56:27.114Z,61.71
2017-11-27T22:58:53.154Z,61.54
2017-11-27T23:01:19.133Z,61.28
2017-11-27T23:03:45.069Z,61.17
2017-11-27T23:06:11.004Z,61.42
2017-11-27T23:08:36.932Z,61.18
2017-11-27T23:11:02.869Z,61.13
2017-11-27T23:13:28.816Z,61.36
2017-11-27T23:15:54.758Z,61.18
2017-11-27T23:18:20.713Z,60.60
2017-11-27T23:20:46.644Z,60.57
2017-11-27T23:23:12.574Z,60.59
2017-11-27T23:25:38.501Z,60.59
2017-11-27T23:28:04.434Z,60.20
2017-11-27T23:30:30.376Z,60.27
2017-11-27T23:32:56.314Z,60.35
2017-11-27T23:35:22.271Z,60.17
2017-11-27T23:37:48.206Z,60.20
2017-11-27T23:40:14.139Z,60.38
2017-11-27T23:42:40.083Z,60.48
2017-11-27T23:45:06.053Z,59.81
2017-11-27T23:47:31.999Z,59.78
2017-11-27T23:49:57.930Z,59.22
2017-11-27T23:52:23.864Z,59.33
2017-11-27T23:54:49.811Z,59.16
2017-11-27T23:57:15.741Z,59.38
2017-11-27T23:59:41.678Z,59.16
